地図

経路データ

SID SEASON NUMBER BASIN SUBBASIN NAME ISO_TIME NATURE LAT LON WMO_WIND WMO_PRES WMO_AGENCY TRACK_TYPE DIST2LAND LANDFALL IFLAG USA_AGENCY USA_ATCF_ID USA_LAT USA_LON USA_RECORD USA_STATUS USA_WIND USA_PRES USA_SSHS USA_R34_NE USA_R34_SE USA_R34_SW USA_R34_NW USA_R50_NE USA_R50_SE USA_R50_SW USA_R50_NW USA_R64_NE USA_R64_SE USA_R64_SW USA_R64_NW USA_POCI USA_ROCI USA_RMW USA_EYE TOKYO_LAT TOKYO_LON TOKYO_GRADE TOKYO_WIND TOKYO_PRES TOKYO_R50_DIR TOKYO_R50_LONG TOKYO_R50_SHORT TOKYO_R30_DIR TOKYO_R30_LONG TOKYO_R30_SHORT TOKYO_LAND CMA_LAT CMA_LON CMA_CAT CMA_WIND CMA_PRES HKO_LAT HKO_LON HKO_CAT HKO_WIND HKO_PRES NEWDELHI_LAT NEWDELHI_LON NEWDELHI_GRADE NEWDELHI_WIND NEWDELHI_PRES NEWDELHI_CI NEWDELHI_DP NEWDELHI_POCI REUNION_LAT REUNION_LON REUNION_TYPE REUNION_WIND REUNION_PRES REUNION_TNUM REUNION_CI REUNION_RMW REUNION_R34_NE REUNION_R34_SE REUNION_R34_SW REUNION_R34_NW REUNION_R50_NE REUNION_R50_SE REUNION_R50_SW REUNION_R50_NW REUNION_R64_NE REUNION_R64_SE REUNION_R64_SW REUNION_R64_NW BOM_LAT BOM_LON BOM_TYPE BOM_WIND BOM_PRES BOM_TNUM BOM_CI BOM_RMW BOM_R34_NE BOM_R34_SE BOM_R34_SW BOM_R34_NW BOM_R50_NE BOM_R50_SE BOM_R50_SW BOM_R50_NW BOM_R64_NE BOM_R64_SE BOM_R64_SW BOM_R64_NW BOM_ROCI BOM_POCI BOM_EYE BOM_POS_METHOD BOM_PRES_METHOD NADI_LAT NADI_LON NADI_CAT NADI_WIND NADI_PRES WELLINGTON_LAT WELLINGTON_LON WELLINGTON_WIND WELLINGTON_PRES DS824_LAT DS824_LON DS824_STAGE DS824_WIND DS824_PRES TD9636_LAT TD9636_LON TD9636_STAGE TD9636_WIND TD9636_PRES TD9635_LAT TD9635_LON TD9635_WIND TD9635_PRES TD9635_ROCI NEUMANN_LAT NEUMANN_LON NEUMANN_CLASS NEUMANN_WIND NEUMANN_PRES MLC_LAT MLC_LON MLC_CLASS MLC_WIND MLC_PRES USA_GUST BOM_GUST BOM_GUST_PER REUNION_GUST REUNION_GUST_PER USA_SEAHGT USA_SEARAD_NE USA_SEARAD_SE USA_SEARAD_SW USA_SEARAD_NW STORM_SPEED STORM_DIR
1925184N07144 1925 27 WP MM NOT_NAMED 1925-07-03 10:00:00 NR 7.00000 143.500 main 1076 1076 __________O___ -1 7.00000 143.500 2 13 306
1925184N07144 1925 27 WP MM NOT_NAMED 1925-07-03 12:00:00 NR 7.25313 143.153 main 1119 1122 __________P___ -1 7.25313 143.153 2 13 306
1925184N07144 1925 27 WP MM NOT_NAMED 1925-07-03 15:00:00 NR 7.62520 142.631 main 1138 1138 __________P___ -1 7.62520 142.631 2 13 305
1925184N07144 1925 27 WP MM NOT_NAMED 1925-07-03 18:00:00 NR 7.97820 142.106 main 1159 1155 __________P___ -1 7.97820 142.106 2 12 303
1925184N07144 1925 27 WP MM NOT_NAMED 1925-07-03 21:00:00 NR 8.30101 141.577 main 1171 1168 __________P___ -1 8.30101 141.577 2 12 301
1925184N07144 1925 27 WP MM NOT_NAMED 1925-07-03 22:00:00 NR 8.40000 141.400 main 1175 1172 __________O___ -1 8.40000 141.400 2 12 298
1925184N07144 1925 27 WP MM NOT_NAMED 1925-07-04 00:00:00 NR 8.58406 141.044 main 1184 1181 __________P___ -1 8.58406 141.044 2 12 296
1925184N07144 1925 27 WP MM NOT_NAMED 1925-07-04 03:00:00 NR 8.83492 140.504 main 1190 1188 __________P___ -1 8.83492 140.504 2 12 294
1925184N07144 1925 27 WP MM NOT_NAMED 1925-07-04 06:00:00 NR 9.07222 139.954 main 1198 1189 __________P___ -1 9.07222 139.954 2 12 294
1925184N07144 1925 27 WP MM NOT_NAMED 1925-07-04 09:00:00 NR 9.31475 139.391 main 1196 1192 __________P___ -1 9.31475 139.391 2 12 294
1925184N07144 1925 27 WP MM NOT_NAMED 1925-07-04 10:00:00 NR 9.40000 139.200 main 1200 1196 __________O___ -1 9.40000 139.200 2 13 296
1925184N07144 1925 27 WP MM NOT_NAMED 1925-07-04 12:00:00 NR 9.58834 138.819 main 1207 1204 __________P___ -1 9.58834 138.819 2 13 297
1925184N07144 1925 27 WP MM NOT_NAMED 1925-07-04 15:00:00 NR 9.88358 138.235 main 1222 1219 __________P___ -1 9.88358 138.235 2 13 297
1925184N07144 1925 27 WP MM NOT_NAMED 1925-07-04 18:00:00 NR 10.1886 137.634 main 1241 1184 __________P___ -1 10.1886 137.634 2 14 297
1925184N07144 1925 27 WP MM NOT_NAMED 1925-07-04 21:00:00 NR 10.4974 137.012 main 1184 1166 __________P___ -1 10.4974 137.012 2 14 297
1925184N07144 1925 27 WP MM NOT_NAMED 1925-07-04 22:00:00 NR 10.6000 136.800 main 1166 1129 __________O___ -1 10.6000 136.800 3 14 296
1925184N07144 1925 27 WP MM NOT_NAMED 1925-07-05 00:00:00 NR 10.8052 136.359 main 1129 1061 __________P___ -1 10.8052 136.359 3 15 295
1925184N07144 1925 27 WP MM NOT_NAMED 1925-07-05 03:00:00 NR 11.1132 135.679 main 1061 994 __________P___ -1 11.1132 135.679 3 15 294
1925184N07144 1925 27 WP MM NOT_NAMED 1925-07-05 06:00:00 NR 11.4158 134.993 main 994 929 __________P___ -1 11.4158 134.993 3 15 294
1925184N07144 1925 27 WP MM NOT_NAMED 1925-07-05 09:00:00 NR 11.7067 134.319 main 929 909 __________P___ -1 11.7067 134.319 3 14 294
1925184N07144 1925 27 WP MM NOT_NAMED 1925-07-05 10:00:00 NR 11.8000 134.100 main 909 868 __________O___ -1 11.8000 134.100 4 14 293
1925184N07144 1925 27 WP MM NOT_NAMED 1925-07-05 12:00:00 NR 11.9750 133.685 main 868 806 __________P___ -1 11.9750 133.685 4 13 293
1925184N07144 1925 27 WP MM NOT_NAMED 1925-07-05 15:00:00 NR 12.2251 133.082 main 806 748 __________P___ -1 12.2251 133.082 4 13 293
1925184N07144 1925 27 WP MM NOT_NAMED 1925-07-05 18:00:00 NR 12.4688 132.491 main 748 690 __________P___ -1 12.4688 132.491 4 13 293
1925184N07144 1925 27 WP MM NOT_NAMED 1925-07-05 21:00:00 NR 12.7155 131.899 main 690 673 __________P___ -1 12.7155 131.899 4 13 293
1925184N07144 1925 27 WP MM NOT_NAMED 1925-07-05 22:00:00 NR 12.8000 131.700 main 673 636 __________O___ -1 12.8000 131.700 4 13 293
1925184N07144 1925 27 WP MM NOT_NAMED 1925-07-06 00:00:00 NR 12.9747 131.289 main 636 575 __________P___ -1 12.9747 131.289 4 13 294
1925184N07144 1925 27 WP MM NOT_NAMED 1925-07-06 03:00:00 NR 13.2433 130.666 main 575 509 __________P___ -1 13.2433 130.666 4 13 294
1925184N07144 1925 27 WP MM NOT_NAMED 1925-07-06 06:00:00 NR 13.5195 130.038 main 509 459 __________P___ -1 13.5195 130.038 4 13 295
1925184N07144 1925 27 WP MM NOT_NAMED 1925-07-06 09:00:00 NR 13.8036 129.409 main 459 443 __________P___ -1 13.8036 129.409 4 14 295
1925184N07144 1925 27 WP MM NOT_NAMED 1925-07-06 10:00:00 NR 13.9000 129.200 main 443 416 __________O___ -1 13.9000 129.200 4 14 295
1925184N07144 1925 27 WP MM NOT_NAMED 1925-07-06 12:00:00 NR 14.0915 128.773 main 416 374 __________P___ -1 14.0915 128.773 4 14 295
1925184N07144 1925 27 WP MM NOT_NAMED 1925-07-06 15:00:00 NR 14.3852 128.132 main 374 345 __________P___ -1 14.3852 128.132 4 14 296
1925184N07144 1925 27 WP MM NOT_NAMED 1925-07-06 18:00:00 NR 14.6865 127.501 main 345 296 __________P___ -1 14.6865 127.501 4 13 297
1925184N07144 1925 27 WP MM NOT_NAMED 1925-07-06 21:00:00 NR 14.9954 126.895 main 296 281 __________P___ -1 14.9954 126.895 4 13 298
1925184N07144 1925 27 WP MM NOT_NAMED 1925-07-06 22:00:00 NR 15.1000 126.700 main 281 257 __________O___ -1 15.1000 126.700 4 13 298
1925184N07144 1925 27 WP MM NOT_NAMED 1925-07-07 00:00:00 NR 15.2975 126.316 main 257 240 __________P___ -1 15.2975 126.316 4 12 299
1925184N07144 1925 27 WP MM NOT_NAMED 1925-07-07 03:00:00 NR 15.6001 125.766 main 241 229 __________P___ -1 15.6001 125.766 4 12 301
1925184N07144 1925 27 WP MM NOT_NAMED 1925-07-07 06:00:00 NR 15.9213 125.246 main 233 233 __________P___ -1 15.9213 125.246 4 12 305
1925184N07144 1925 27 WP MM NOT_NAMED 1925-07-07 09:00:00 NR 16.2736 124.756 main 254 230 __________P___ -1 16.2736 124.756 4 12 308
1925184N07144 1925 27 WP MM NOT_NAMED 1925-07-07 10:00:00 NR 16.4000 124.600 main 230 192 __________O___ -1 16.4000 124.600 4 12 312
1925184N07144 1925 27 WP MM NOT_NAMED 1925-07-07 12:00:00 NR 16.6817 124.276 main 192 138 __________P___ -1 16.6817 124.276 4 13 314
1925184N07144 1925 27 WP MM NOT_NAMED 1925-07-07 15:00:00 NR 17.1364 123.814 main 138 111 __________P___ -1 17.1364 123.814 4 13 317
1925184N07144 1925 27 WP MM NOT_NAMED 1925-07-07 18:00:00 NR 17.6043 123.390 main 111 77 __________P___ -1 17.6043 123.390 4 12 320
1925184N07144 1925 27 WP MM NOT_NAMED 1925-07-07 21:00:00 NR 18.0572 123.013 main 77 64 __________P___ -1 18.0572 123.013 4 11 322
1925184N07144 1925 27 WP MM NOT_NAMED 1925-07-07 22:00:00 NR 18.2000 122.900 main 64 42 __________O___ -1 18.2000 122.900 4 10 322
1925184N07144 1925 27 WP MM NOT_NAMED 1925-07-08 00:00:00 NR 18.4479 122.690 main 42 30 __________P___ -1 18.4479 122.690 4 9 322
1925184N07144 1925 27 WP MM NOT_NAMED 1925-07-08 03:00:00 NR 18.7947 122.420 main 45 45 __________P___ -1 18.7947 122.420 4 8 325
1925184N07144 1925 27 WP MM NOT_NAMED 1925-07-08 06:00:00 NR 19.1309 122.186 main 78 78 __________P___ -1 19.1309 122.186 4 8 328
1925184N07144 1925 27 WP MM NOT_NAMED 1925-07-08 09:00:00 NR 19.4781 121.971 main 123 123 __________P___ -1 19.4781 121.971 4 8 330
1925184N07144 1925 27 WP MM NOT_NAMED 1925-07-08 10:00:00 NR 19.6000 121.900 main 133 133 __________O___ -1 19.6000 121.900 4 9 331
1925184N07144 1925 27 WP MM NOT_NAMED 1925-07-08 12:00:00 NR 19.8845 121.734 main 159 159 __________P___ -1 19.8845 121.734 4 10 332
1925184N07144 1925 27 WP MM NOT_NAMED 1925-07-08 15:00:00 NR 20.3307 121.491 main 189 129 __________P___ -1 20.3307 121.491 4 10 334
1925184N07144 1925 27 WP MM NOT_NAMED 1925-07-08 18:00:00 NR 20.7724 121.263 main 129 80 __________P___ -1 20.7724 121.263 4 9 335
1925184N07144 1925 27 WP MM NOT_NAMED 1925-07-08 21:00:00 NR 21.1781 121.060 main 80 67 __________P___ -1 21.1781 121.060 4 9 335
1925184N07144 1925 27 WP MM NOT_NAMED 1925-07-08 22:00:00 NR 21.3000 121.000 main 67 44 __________O___ -1 21.3000 121.000 4 7 334
1925184N07144 1925 27 WP MM NOT_NAMED 1925-07-09 00:00:00 NR 21.5091 120.888 main 44 11 __________P___ -1 21.5091 120.888 4 6 334
1925184N07144 1925 27 WP MM NOT_NAMED 1925-07-09 03:00:00 NR 21.7788 120.746 main 11 0 __________P___ -1 21.7788 120.746 4 6 334
1925184N07144 1925 27 WP MM NOT_NAMED 1925-07-09 06:00:00 NR 22.0124 120.629 main 10 10 __________P___ -1 22.0124 120.629 4 5 336
1925184N07144 1925 27 WP MM NOT_NAMED 1925-07-09 09:00:00 NR 22.2286 120.530 main 15 10 __________P___ -1 22.2286 120.530 4 5 337
1925184N07144 1925 27 WP MM NOT_NAMED 1925-07-09 10:00:00 NR 22.3000 120.500 main 10 0 __________O___ -1 22.3000 120.500 4 5 340
1925184N07144 1925 27 WP MM NOT_NAMED 1925-07-09 12:00:00 NR 22.4425 120.449 main 10 0 __________P___ -1 22.4425 120.449 4 4 343
1925184N07144 1925 27 WP MM NOT_NAMED 1925-07-09 15:00:00 NR 22.6497 120.385 main 0 0 __________P___ -1 22.6497 120.385 4 4 345
1925184N07144 1925 27 WP MM NOT_NAMED 1925-07-09 18:00:00 NR 22.8658 120.320 main 0 0 __________P___ -1 22.8658 120.320 4 5 343
1925184N07144 1925 27 WP MM NOT_NAMED 1925-07-09 21:00:00 NR 23.1094 120.236 main 0 0 __________P___ -1 23.1094 120.236 4 5 342
1925184N07144 1925 27 WP MM NOT_NAMED 1925-07-09 22:00:00 NR 23.2000 120.200 main 0 0 __________O___ -1 23.2000 120.200 4 6 338
1925184N07144 1925 27 WP MM NOT_NAMED 1925-07-10 00:00:00 NR 23.3996 120.106 main 10 10 __________P___ -1 23.3996 120.106 4 7 336
1925184N07144 1925 27 WP MM NOT_NAMED 1925-07-10 03:00:00 NR 23.7304 119.940 main 23 23 __________P___ -1 23.7304 119.940 4 8 335
1925184N07144 1925 27 WP MM NOT_NAMED 1925-07-10 06:00:00 NR 24.0905 119.755 main 51 61 __________P___ -1 24.0905 119.755 4 8 335
1925184N07144 1925 27 WP MM NOT_NAMED 1925-07-10 09:00:00 NR 24.4705 119.563 main 78 63 __________P___ -1 24.4705 119.563 4 8 336
1925184N07144 1925 27 WP MM NOT_NAMED 1925-07-10 10:00:00 NR 24.6000 119.500 main 63 30 __________O___ -1 24.6000 119.500 4 9 337
1925184N07144 1925 27 WP MM NOT_NAMED 1925-07-10 12:00:00 NR 24.8616 119.377 main 30 0 __________P___ -1 24.8616 119.377 4 9 338
1925184N07144 1925 27 WP MM NOT_NAMED 1925-07-10 15:00:00 NR 25.2590 119.199 main 0 0 __________P___ -1 25.2590 119.199 4 9 338
1925184N07144 1925 27 WP MM NOT_NAMED 1925-07-10 18:00:00 NR 25.6608 119.026 main 0 0 __________P___ -1 25.6608 119.026 4 9 339
1925184N07144 1925 27 WP MM NOT_NAMED 1925-07-10 21:00:00 NR 26.0651 118.856 main 0 0 __________P___ -1 26.0651 118.856 4 9 339
1925184N07144 1925 27 WP MM NOT_NAMED 1925-07-10 22:00:00 NR 26.2000 118.800 main 0 __________O___ -1 26.2000 118.800 2 9 336

デジタル台風データ・検索

IBTrACS Databaseについて

本データベースは、米国NOAAが公開する1842年以降の世界の熱帯低気圧のベストトラックデータアーカイブInternational Best Track Archive for Climate Stewardship (IBTrACS)を、ウェブで閲覧しやすい形式に変換したものです。

最終更新日:2021-12-06